sensor_id;sensor_type;location;lat;lon;timestamp;temperature;humidity
65421;DHT22;52028;50.658;14.004;2022-08-23T00:00:29;16.85;86.82
65421;DHT22;52028;50.658;14.004;2022-08-23T00:02:54;16.89;86.58
65421;DHT22;52028;50.658;14.004;2022-08-23T00:05:20;16.99;86.90
65421;DHT22;52028;50.658;14.004;2022-08-23T00:07:46;16.95;86.54
65421;DHT22;52028;50.658;14.004;2022-08-23T00:10:14;16.94;86.23
65421;DHT22;52028;50.658;14.004;2022-08-23T00:12:40;16.95;86.45
65421;DHT22;52028;50.658;14.004;2022-08-23T00:15:08;16.98;86.36
65421;DHT22;52028;50.658;14.004;2022-08-23T00:17:33;16.91;86.45
65421;DHT22;52028;50.658;14.004;2022-08-23T00:19:59;16.99;86.57
65421;DHT22;52028;50.658;14.004;2022-08-23T00:22:24;17.02;87.09
65421;DHT22;52028;50.658;14.004;2022-08-23T00:24:50;17.06;87.07
65421;DHT22;52028;50.658;14.004;2022-08-23T00:27:16;17.16;86.70
65421;DHT22;52028;50.658;14.004;2022-08-23T00:29:45;17.24;86.80
65421;DHT22;52028;50.658;14.004;2022-08-23T00:32:23;17.23;86.97
65421;DHT22;52028;50.658;14.004;2022-08-23T00:34:49;17.22;86.78
65421;DHT22;52028;50.658;14.004;2022-08-23T00:37:15;17.39;86.48
65421;DHT22;52028;50.658;14.004;2022-08-23T00:39:42;17.44;85.78
65421;DHT22;52028;50.658;14.004;2022-08-23T00:42:15;17.41;86.25
65421;DHT22;52028;50.658;14.004;2022-08-23T00:45:07;17.48;86.10
65421;DHT22;52028;50.658;14.004;2022-08-23T00:47:52;17.46;86.86
65421;DHT22;52028;50.658;14.004;2022-08-23T00:50:48;17.24;85.77
65421;DHT22;52028;50.658;14.004;2022-08-23T00:53:23;17.18;86.96
65421;DHT22;52028;50.658;14.004;2022-08-23T00:55:53;17.18;86.84
65421;DHT22;52028;50.658;14.004;2022-08-23T00:58:20;17.16;87.83
65421;DHT22;52028;50.658;14.004;2022-08-23T01:00:47;16.88;88.74
65421;DHT22;52028;50.658;14.004;2022-08-23T01:03:14;16.81;88.54
65421;DHT22;52028;50.658;14.004;2022-08-23T01:05:55;16.84;87.80
65421;DHT22;52028;50.658;14.004;2022-08-23T01:08:24;16.96;87.25
65421;DHT22;52028;50.658;14.004;2022-08-23T01:10:56;17.06;86.98
65421;DHT22;52028;50.658;14.004;2022-08-23T01:13:27;17.03;86.58
65421;DHT22;52028;50.658;14.004;2022-08-23T01:16:16;17.09;86.58
65421;DHT22;52028;50.658;14.004;2022-08-23T01:18:43;17.15;86.37
65421;DHT22;52028;50.658;14.004;2022-08-23T01:23:48;17.15;86.83
65421;DHT22;52028;50.658;14.004;2022-08-23T01:26:17;17.18;87.40
65421;DHT22;52028;50.658;14.004;2022-08-23T01:28:42;17.20;86.91
65421;DHT22;52028;50.658;14.004;2022-08-23T01:31:09;17.26;86.26
65421;DHT22;52028;50.658;14.004;2022-08-23T01:33:36;17.29;85.89
65421;DHT22;52028;50.658;14.004;2022-08-23T01:36:03;17.16;86.31
65421;DHT22;52028;50.658;14.004;2022-08-23T01:38:29;17.23;86.47
65421;DHT22;52028;50.658;14.004;2022-08-23T01:40:54;17.26;86.21
65421;DHT22;52028;50.658;14.004;2022-08-23T01:43:20;17.18;86.23
65421;DHT22;52028;50.658;14.004;2022-08-23T01:45:47;17.22;86.21
65421;DHT22;52028;50.658;14.004;2022-08-23T01:48:13;17.29;86.13
65421;DHT22;52028;50.658;14.004;2022-08-23T01:50:39;17.23;86.15
65421;DHT22;52028;50.658;14.004;2022-08-23T01:53:04;17.26;86.29
65421;DHT22;52028;50.658;14.004;2022-08-23T01:55:30;17.24;86.82
65421;DHT22;52028;50.658;14.004;2022-08-23T01:57:57;17.24;86.26
65421;DHT22;52028;50.658;14.004;2022-08-23T02:00:29;17.33;86.59
65421;DHT22;52028;50.658;14.004;2022-08-23T02:02:56;17.37;86.64
65421;DHT22;52028;50.658;14.004;2022-08-23T02:05:22;17.37;86.54
65421;DHT22;52028;50.658;14.004;2022-08-23T02:07:47;17.33;86.04
65421;DHT22;52028;50.658;14.004;2022-08-23T02:10:13;17.40;85.88
65421;DHT22;52028;50.658;14.004;2022-08-23T02:12:38;17.53;86.34
65421;DHT22;52028;50.658;14.004;2022-08-23T02:15:04;17.47;85.88
65421;DHT22;52028;50.658;14.004;2022-08-23T02:17:30;17.54;86.55
65421;DHT22;52028;50.658;14.004;2022-08-23T02:19:55;17.48;85.65
65421;DHT22;52028;50.658;14.004;2022-08-23T02:22:21;17.46;85.70
65421;DHT22;52028;50.658;14.004;2022-08-23T02:24:46;17.47;86.27
65421;DHT22;52028;50.658;14.004;2022-08-23T02:27:13;17.57;86.05
65421;DHT22;52028;50.658;14.004;2022-08-23T02:29:40;17.64;85.22
65421;DHT22;52028;50.658;14.004;2022-08-23T02:32:07;17.68;84.80
65421;DHT22;52028;50.658;14.004;2022-08-23T02:34:33;17.73;83.78
65421;DHT22;52028;50.658;14.004;2022-08-23T02:36:58;17.73;84.82
65421;DHT22;52028;50.658;14.004;2022-08-23T02:39:24;17.73;83.70
65421;DHT22;52028;50.658;14.004;2022-08-23T02:41:49;17.71;83.61
65421;DHT22;52028;50.658;14.004;2022-08-23T02:44:16;17.77;84.53
65421;DHT22;52028;50.658;14.004;2022-08-23T02:46:41;17.85;83.75
65421;DHT22;52028;50.658;14.004;2022-08-23T02:49:07;17.73;84.66
65421;DHT22;52028;50.658;14.004;2022-08-23T02:51:32;17.67;84.14
65421;DHT22;52028;50.658;14.004;2022-08-23T02:53:58;17.81;83.77
65421;DHT22;52028;50.658;14.004;2022-08-23T02:56:23;17.67;83.93
65421;DHT22;52028;50.658;14.004;2022-08-23T02:58:52;17.60;84.33
65421;DHT22;52028;50.658;14.004;2022-08-23T03:01:20;17.67;85.35
65421;DHT22;52028;50.658;14.004;2022-08-23T03:03:46;17.60;84.97
65421;DHT22;52028;50.658;14.004;2022-08-23T03:06:12;17.64;86.06
65421;DHT22;52028;50.658;14.004;2022-08-23T03:08:38;17.70;85.99
65421;DHT22;52028;50.658;14.004;2022-08-23T03:11:13;17.67;85.11
65421;DHT22;52028;50.658;14.004;2022-08-23T03:13:39;17.73;85.22
65421;DHT22;52028;50.658;14.004;2022-08-23T03:16:06;17.75;85.31
65421;DHT22;52028;50.658;14.004;2022-08-23T03:18:33;17.81;85.59
65421;DHT22;52028;50.658;14.004;2022-08-23T03:20:58;17.81;85.51
65421;DHT22;52028;50.658;14.004;2022-08-23T03:23:24;17.79;85.80
65421;DHT22;52028;50.658;14.004;2022-08-23T03:25:49;17.71;85.63
65421;DHT22;52028;50.658;14.004;2022-08-23T03:28:14;17.70;85.73
65421;DHT22;52028;50.658;14.004;2022-08-23T03:30:41;17.71;86.14
65421;DHT22;52028;50.658;14.004;2022-08-23T03:33:07;17.81;86.11
65421;DHT22;52028;50.658;14.004;2022-08-23T03:35:33;17.84;85.89
65421;DHT22;52028;50.658;14.004;2022-08-23T03:37:58;17.84;86.23
65421;DHT22;52028;50.658;14.004;2022-08-23T03:40:24;17.84;86.38
65421;DHT22;52028;50.658;14.004;2022-08-23T03:42:50;17.79;86.38
65421;DHT22;52028;50.658;14.004;2022-08-23T03:45:17;17.79;86.02
65421;DHT22;52028;50.658;14.004;2022-08-23T03:47:42;17.84;85.68
65421;DHT22;52028;50.658;14.004;2022-08-23T03:50:09;17.88;85.76
65421;DHT22;52028;50.658;14.004;2022-08-23T03:52:34;17.85;86.19
65421;DHT22;52028;50.658;14.004;2022-08-23T03:54:59;17.89;86.05
65421;DHT22;52028;50.658;14.004;2022-08-23T03:57:25;17.89;85.65
65421;DHT22;52028;50.658;14.004;2022-08-23T03:59:50;17.86;84.84
65421;DHT22;52028;50.658;14.004;2022-08-23T04:02:16;17.77;84.64
65421;DHT22;52028;50.658;14.004;2022-08-23T04:04:41;17.91;84.92
65421;DHT22;52028;50.658;14.004;2022-08-23T04:07:07;17.82;85.04
65421;DHT22;52028;50.658;14.004;2022-08-23T04:09:32;17.89;84.54
65421;DHT22;52028;50.658;14.004;2022-08-23T04:11:58;17.67;83.93
65421;DHT22;52028;50.658;14.004;2022-08-23T04:14:23;17.70;84.41
65421;DHT22;52028;50.658;14.004;2022-08-23T04:16:49;17.91;84.59
65421;DHT22;52028;50.658;14.004;2022-08-23T04:19:15;17.95;84.44
65421;DHT22;52028;50.658;14.004;2022-08-23T04:21:43;18.03;83.87
65421;DHT22;52028;50.658;14.004;2022-08-23T04:24:10;18.05;83.35
65421;DHT22;52028;50.658;14.004;2022-08-23T04:26:35;17.99;83.04
65421;DHT22;52028;50.658;14.004;2022-08-23T04:29:01;18.02;83.84
65421;DHT22;52028;50.658;14.004;2022-08-23T04:31:26;18.06;84.19
65421;DHT22;52028;50.658;14.004;2022-08-23T04:33:53;18.06;83.99
65421;DHT22;52028;50.658;14.004;2022-08-23T04:36:19;17.91;84.07
65421;DHT22;52028;50.658;14.004;2022-08-23T04:38:45;17.91;84.39
65421;DHT22;52028;50.658;14.004;2022-08-23T04:41:10;17.93;83.84
65421;DHT22;52028;50.658;14.004;2022-08-23T04:43:54;17.91;84.32
65421;DHT22;52028;50.658;14.004;2022-08-23T04:46:21;17.86;83.48
65421;DHT22;52028;50.658;14.004;2022-08-23T04:48:46;17.84;83.98
65421;DHT22;52028;50.658;14.004;2022-08-23T04:51:13;17.82;84.36
65421;DHT22;52028;50.658;14.004;2022-08-23T04:53:39;17.79;84.12
65421;DHT22;52028;50.658;14.004;2022-08-23T04:56:05;17.67;84.94
65421;DHT22;52028;50.658;14.004;2022-08-23T04:58:31;17.63;85.25
65421;DHT22;52028;50.658;14.004;2022-08-23T05:00:59;17.64;85.40
65421;DHT22;52028;50.658;14.004;2022-08-23T05:03:25;17.81;85.16
65421;DHT22;52028;50.658;14.004;2022-08-23T05:05:52;17.77;85.15
65421;DHT22;52028;50.658;14.004;2022-08-23T05:08:18;17.70;85.26
65421;DHT22;52028;50.658;14.004;2022-08-23T05:10:43;17.74;85.07
65421;DHT22;52028;50.658;14.004;2022-08-23T05:13:09;17.88;85.55
65421;DHT22;52028;50.658;14.004;2022-08-23T05:15:35;17.85;85.16
65421;DHT22;52028;50.658;14.004;2022-08-23T05:18:00;17.95;84.94
65421;DHT22;52028;50.658;14.004;2022-08-23T05:20:25;18.05;84.58
65421;DHT22;52028;50.658;14.004;2022-08-23T05:22:51;18.16;84.23
65421;DHT22;52028;50.658;14.004;2022-08-23T05:25:17;18.12;84.22
65421;DHT22;52028;50.658;14.004;2022-08-23T05:27:42;18.22;84.00
65421;DHT22;52028;50.658;14.004;2022-08-23T05:30:08;18.17;84.04
65421;DHT22;52028;50.658;14.004;2022-08-23T05:32:35;17.89;84.24
65421;DHT22;52028;50.658;14.004;2022-08-23T05:35:00;17.98;84.59
65421;DHT22;52028;50.658;14.004;2022-08-23T05:37:26;18.14;84.59
65421;DHT22;52028;50.658;14.004;2022-08-23T05:39:51;18.12;84.63
65421;DHT22;52028;50.658;14.004;2022-08-23T05:42:16;18.17;84.32
65421;DHT22;52028;50.658;14.004;2022-08-23T05:44:43;18.10;83.79
65421;DHT22;52028;50.658;14.004;2022-08-23T05:47:11;18.22;83.97
65421;DHT22;52028;50.658;14.004;2022-08-23T05:49:37;18.19;83.61
65421;DHT22;52028;50.658;14.004;2022-08-23T05:52:04;18.37;83.70
65421;DHT22;52028;50.658;14.004;2022-08-23T05:54:29;18.32;83.82
65421;DHT22;52028;50.658;14.004;2022-08-23T05:56:55;18.36;83.50
65421;DHT22;52028;50.658;14.004;2022-08-23T05:59:20;18.27;83.34
65421;DHT22;52028;50.658;14.004;2022-08-23T06:01:46;18.27;82.84
65421;DHT22;52028;50.658;14.004;2022-08-23T06:04:12;18.23;83.50
65421;DHT22;52028;50.658;14.004;2022-08-23T06:06:39;18.23;83.35
65421;DHT22;52028;50.658;14.004;2022-08-23T06:09:08;18.40;83.69
65421;DHT22;52028;50.658;14.004;2022-08-23T06:11:34;18.41;82.81
65421;DHT22;52028;50.658;14.004;2022-08-23T06:14:02;18.33;82.61
65421;DHT22;52028;50.658;14.004;2022-08-23T06:16:37;18.36;83.06
65421;DHT22;52028;50.658;14.004;2022-08-23T06:19:04;18.44;82.72
65421;DHT22;52028;50.658;14.004;2022-08-23T06:21:30;18.27;82.18
65421;DHT22;52028;50.658;14.004;2022-08-23T06:23:56;18.36;82.87
65421;DHT22;52028;50.658;14.004;2022-08-23T06:26:26;18.37;82.35
65421;DHT22;52028;50.658;14.004;2022-08-23T06:28:54;18.38;82.62
65421;DHT22;52028;50.658;14.004;2022-08-23T06:31:22;18.41;82.31
65421;DHT22;52028;50.658;14.004;2022-08-23T06:34:09;18.58;81.94
65421;DHT22;52028;50.658;14.004;2022-08-23T06:36:35;18.47;81.87
65421;DHT22;52028;50.658;14.004;2022-08-23T06:39:03;18.41;81.50
65421;DHT22;52028;50.658;14.004;2022-08-23T06:41:29;18.54;81.00
65421;DHT22;52028;50.658;14.004;2022-08-23T06:43:54;18.57;80.76
65421;DHT22;52028;50.658;14.004;2022-08-23T06:46:22;18.57;81.35
65421;DHT22;52028;50.658;14.004;2022-08-23T06:48:48;18.62;80.81
65421;DHT22;52028;50.658;14.004;2022-08-23T06:51:20;18.61;80.99
65421;DHT22;52028;50.658;14.004;2022-08-23T06:53:47;18.72;80.56
65421;DHT22;52028;50.658;14.004;2022-08-23T06:56:13;18.76;80.25
65421;DHT22;52028;50.658;14.004;2022-08-23T06:58:38;18.82;80.32
65421;DHT22;52028;50.658;14.004;2022-08-23T07:01:12;18.81;79.82
65421;DHT22;52028;50.658;14.004;2022-08-23T07:03:40;18.82;79.55
65421;DHT22;52028;50.658;14.004;2022-08-23T07:06:05;18.94;78.69
65421;DHT22;52028;50.658;14.004;2022-08-23T07:08:32;19.00;78.84
65421;DHT22;52028;50.658;14.004;2022-08-23T07:10:57;18.98;78.83
65421;DHT22;52028;50.658;14.004;2022-08-23T07:13:22;19.19;78.22
65421;DHT22;52028;50.658;14.004;2022-08-23T07:15:48;19.19;77.60
65421;DHT22;52028;50.658;14.004;2022-08-23T07:18:14;18.96;78.51
65421;DHT22;52028;50.658;14.004;2022-08-23T07:20:39;18.82;79.45
65421;DHT22;52028;50.658;14.004;2022-08-23T07:23:05;18.92;79.44
65421;DHT22;52028;50.658;14.004;2022-08-23T07:25:30;19.05;78.60
65421;DHT22;52028;50.658;14.004;2022-08-23T07:27:57;19.07;78.75
65421;DHT22;52028;50.658;14.004;2022-08-23T07:30:23;19.06;78.82
65421;DHT22;52028;50.658;14.004;2022-08-23T07:32:49;19.00;79.53
65421;DHT22;52028;50.658;14.004;2022-08-23T07:35:14;19.00;79.52
65421;DHT22;52028;50.658;14.004;2022-08-23T07:37:40;18.99;79.11
65421;DHT22;52028;50.658;14.004;2022-08-23T07:40:07;19.10;79.05
65421;DHT22;52028;50.658;14.004;2022-08-23T07:42:32;19.26;78.84
65421;DHT22;52028;50.658;14.004;2022-08-23T07:44:58;19.00;78.71
65421;DHT22;52028;50.658;14.004;2022-08-23T07:47:23;19.19;79.06
65421;DHT22;52028;50.658;14.004;2022-08-23T07:49:48;19.23;78.77
65421;DHT22;52028;50.658;14.004;2022-08-23T07:52:14;19.17;78.91
65421;DHT22;52028;50.658;14.004;2022-08-23T07:54:40;19.33;79.24
65421;DHT22;52028;50.658;14.004;2022-08-23T07:57:05;19.35;79.39
65421;DHT22;52028;50.658;14.004;2022-08-23T07:59:31;19.49;79.97
65421;DHT22;52028;50.658;14.004;2022-08-23T08:02:02;19.43;79.47
65421;DHT22;52028;50.658;14.004;2022-08-23T08:04:28;19.41;79.73
65421;DHT22;52028;50.658;14.004;2022-08-23T08:06:55;19.44;80.34
65421;DHT22;52028;50.658;14.004;2022-08-23T08:09:21;19.43;79.23
65421;DHT22;52028;50.658;14.004;2022-08-23T08:11:47;19.49;79.04
65421;DHT22;52028;50.658;14.004;2022-08-23T08:14:15;19.50;79.05
65421;DHT22;52028;50.658;14.004;2022-08-23T08:16:44;19.38;79.60
65421;DHT22;52028;50.658;14.004;2022-08-23T08:19:12;19.43;79.84
65421;DHT22;52028;50.658;14.004;2022-08-23T08:21:40;19.50;79.27
65421;DHT22;52028;50.658;14.004;2022-08-23T08:24:07;19.67;78.92
65421;DHT22;52028;50.658;14.004;2022-08-23T08:26:35;19.79;78.00
65421;DHT22;52028;50.658;14.004;2022-08-23T08:29:01;20.03;77.94
65421;DHT22;52028;50.658;14.004;2022-08-23T08:31:26;20.05;76.84
65421;DHT22;52028;50.658;14.004;2022-08-23T08:33:52;20.13;76.34
65421;DHT22;52028;50.658;14.004;2022-08-23T08:36:36;20.24;75.72
65421;DHT22;52028;50.658;14.004;2022-08-23T08:39:11;20.03;77.37
65421;DHT22;52028;50.658;14.004;2022-08-23T08:47:10;20.02;77.60
65421;DHT22;52028;50.658;14.004;2022-08-23T08:50:05;20.20;77.16
65421;DHT22;52028;50.658;14.004;2022-08-23T08:52:36;20.20;76.57
65421;DHT22;52028;50.658;14.004;2022-08-23T08:55:07;20.14;77.51
65421;DHT22;52028;50.658;14.004;2022-08-23T08:57:43;19.93;77.26
65421;DHT22;52028;50.658;14.004;2022-08-23T09:00:22;20.06;77.00
65421;DHT22;52028;50.658;14.004;2022-08-23T09:02:48;20.24;77.87
65421;DHT22;52028;50.658;14.004;2022-08-23T09:05:21;20.05;77.66
65421;DHT22;52028;50.658;14.004;2022-08-23T09:10:53;20.14;77.88
65421;DHT22;52028;50.658;14.004;2022-08-23T09:13:32;20.03;77.59
65421;DHT22;52028;50.658;14.004;2022-08-23T09:18:47;20.45;76.54
65421;DHT22;52028;50.658;14.004;2022-08-23T09:21:13;20.45;76.56
65421;DHT22;52028;50.658;14.004;2022-08-23T09:23:45;20.54;75.30
65421;DHT22;52028;50.658;14.004;2022-08-23T09:26:27;20.54;75.33
65421;DHT22;52028;50.658;14.004;2022-08-23T09:29:09;20.37;75.56
65421;DHT22;52028;50.658;14.004;2022-08-23T09:31:45;20.67;74.55
65421;DHT22;52028;50.658;14.004;2022-08-23T09:34:36;20.76;74.51
65421;DHT22;52028;50.658;14.004;2022-08-23T09:39:40;21.12;74.00
65421;DHT22;52028;50.658;14.004;2022-08-23T09:44:57;20.86;72.70
65421;DHT22;52028;50.658;14.004;2022-08-23T09:47:31;20.99;72.86
65421;DHT22;52028;50.658;14.004;2022-08-23T09:50:07;20.96;73.36
65421;DHT22;52028;50.658;14.004;2022-08-23T09:52:35;20.96;74.24
65421;DHT22;52028;50.658;14.004;2022-08-23T09:55:05;21.10;74.11
65421;DHT22;52028;50.658;14.004;2022-08-23T09:57:33;21.14;72.03
65421;DHT22;52028;50.658;14.004;2022-08-23T10:02:40;20.72;75.42
65421;DHT22;52028;50.658;14.004;2022-08-23T10:05:58;20.67;73.81
65421;DHT22;52028;50.658;14.004;2022-08-23T10:08:04;20.52;74.90
65421;DHT22;52028;50.658;14.004;2022-08-23T10:10:35;20.63;75.25
65421;DHT22;52028;50.658;14.004;2022-08-23T10:13:03;20.55;73.66
65421;DHT22;52028;50.658;14.004;2022-08-23T10:15:48;20.43;74.98
65421;DHT22;52028;50.658;14.004;2022-08-23T10:21:19;20.71;74.69
65421;DHT22;52028;50.658;14.004;2022-08-23T10:26:34;20.75;73.53
65421;DHT22;52028;50.658;14.004;2022-08-23T10:29:18;20.85;73.42
65421;DHT22;52028;50.658;14.004;2022-08-23T10:37:40;20.41;73.62
65421;DHT22;52028;50.658;14.004;2022-08-23T10:40:26;20.34;74.17
65421;DHT22;52028;50.658;14.004;2022-08-23T10:45:39;20.43;73.95
65421;DHT22;52028;50.658;14.004;2022-08-23T10:53:40;20.54;73.89
65421;DHT22;52028;50.658;14.004;2022-08-23T10:56:12;20.43;74.02
65421;DHT22;52028;50.658;14.004;2022-08-23T10:58:46;20.54;74.21
65421;DHT22;52028;50.658;14.004;2022-08-23T11:01:16;20.76;74.70
65421;DHT22;52028;50.658;14.004;2022-08-23T11:03:55;20.98;74.42
65421;DHT22;52028;50.658;14.004;2022-08-23T11:17:06;21.34;72.50
65421;DHT22;52028;50.658;14.004;2022-08-23T11:22:25;21.48;72.96
65421;DHT22;52028;50.658;14.004;2022-08-23T11:24:55;21.59;72.89
65421;DHT22;52028;50.658;14.004;2022-08-23T11:27:35;21.12;73.17
65421;DHT22;52028;50.658;14.004;2022-08-23T11:43:48;22.09;70.60
65421;DHT22;52028;50.658;14.004;2022-08-23T12:05:26;21.55;72.26
65421;DHT22;52028;50.658;14.004;2022-08-23T12:18:52;21.38;72.21
65421;DHT22;52028;50.658;14.004;2022-08-23T12:29:42;21.57;71.62
65421;DHT22;52028;50.658;14.004;2022-08-23T12:32:43;21.58;71.13
65421;DHT22;52028;50.658;14.004;2022-08-23T12:36:00;21.68;70.35
65421;DHT22;52028;50.658;14.004;2022-08-23T12:38:55;21.72;71.09
65421;DHT22;52028;50.658;14.004;2022-08-23T12:41:28;21.65;71.04
65421;DHT22;52028;50.658;14.004;2022-08-23T12:48:59;21.59;71.07
65421;DHT22;52028;50.658;14.004;2022-08-23T12:51:25;21.58;71.84
65421;DHT22;52028;50.658;14.004;2022-08-23T12:53:50;21.68;71.30
65421;DHT22;52028;50.658;14.004;2022-08-23T12:56:20;21.86;70.94
65421;DHT22;52028;50.658;14.004;2022-08-23T12:58:56;21.98;70.83
65421;DHT22;52028;50.658;14.004;2022-08-23T13:01:27;21.99;70.90
65421;DHT22;52028;50.658;14.004;2022-08-23T13:06:33;22.12;70.97
65421;DHT22;52028;50.658;14.004;2022-08-23T13:09:08;22.36;69.84
65421;DHT22;52028;50.658;14.004;2022-08-23T13:11:37;22.34;69.89
65421;DHT22;52028;50.658;14.004;2022-08-23T13:16:49;22.39;68.89
65421;DHT22;52028;50.658;14.004;2022-08-23T13:19:25;22.29;69.92
65421;DHT22;52028;50.658;14.004;2022-08-23T13:22:10;22.17;70.48
65421;DHT22;52028;50.658;14.004;2022-08-23T13:24:40;22.32;70.30
65421;DHT22;52028;50.658;14.004;2022-08-23T13:27:28;22.16;71.38
65421;DHT22;52028;50.658;14.004;2022-08-23T13:32:34;21.89;71.82
65421;DHT22;52028;50.658;14.004;2022-08-23T13:37:47;21.79;72.30
65421;DHT22;52028;50.658;14.004;2022-08-23T13:40:29;21.77;72.57
65421;DHT22;52028;50.658;14.004;2022-08-23T13:43:01;21.61;72.82
65421;DHT22;52028;50.658;14.004;2022-08-23T13:45:34;21.72;73.59
65421;DHT22;52028;50.658;14.004;2022-08-23T13:48:10;21.61;73.61
65421;DHT22;52028;50.658;14.004;2022-08-23T13:50:37;21.57;73.96
65421;DHT22;52028;50.658;14.004;2022-08-23T13:53:06;21.46;73.67
65421;DHT22;52028;50.658;14.004;2022-08-23T13:55:40;21.47;75.16
65421;DHT22;52028;50.658;14.004;2022-08-23T13:58:10;21.48;74.15
65421;DHT22;52028;50.658;14.004;2022-08-23T14:00:40;21.48;75.11
65421;DHT22;52028;50.658;14.004;2022-08-23T14:03:05;21.50;75.04
65421;DHT22;52028;50.658;14.004;2022-08-23T14:05:32;21.65;74.93
65421;DHT22;52028;50.658;14.004;2022-08-23T14:07:58;21.72;74.04
65421;DHT22;52028;50.658;14.004;2022-08-23T14:10:23;21.57;75.06
65421;DHT22;52028;50.658;14.004;2022-08-23T14:12:51;21.33;76.76
65421;DHT22;52028;50.658;14.004;2022-08-23T14:15:17;21.37;76.51
65421;DHT22;52028;50.658;14.004;2022-08-23T14:17:48;21.29;76.17
65421;DHT22;52028;50.658;14.004;2022-08-23T14:20:15;21.24;76.12
65421;DHT22;52028;50.658;14.004;2022-08-23T14:22:41;21.19;76.40
65421;DHT22;52028;50.658;14.004;2022-08-23T14:25:07;21.16;76.37
65421;DHT22;52028;50.658;14.004;2022-08-23T14:27:33;21.04;75.74
65421;DHT22;52028;50.658;14.004;2022-08-23T14:29:59;20.98;75.92
65421;DHT22;52028;50.658;14.004;2022-08-23T14:32:24;20.89;77.26
65421;DHT22;52028;50.658;14.004;2022-08-23T14:34:50;20.88;77.01
65421;DHT22;52028;50.658;14.004;2022-08-23T14:37:15;20.72;78.00
65421;DHT22;52028;50.658;14.004;2022-08-23T14:39:40;20.79;78.09
65421;DHT22;52028;50.658;14.004;2022-08-23T14:42:06;20.86;77.08
65421;DHT22;52028;50.658;14.004;2022-08-23T14:44:32;20.96;77.77
65421;DHT22;52028;50.658;14.004;2022-08-23T14:46:57;21.04;77.30
65421;DHT22;52028;50.658;14.004;2022-08-23T14:49:22;21.00;75.85
65421;DHT22;52028;50.658;14.004;2022-08-23T14:51:49;20.67;76.65
65421;DHT22;52028;50.658;14.004;2022-08-23T14:54:20;20.85;76.77
65421;DHT22;52028;50.658;14.004;2022-08-23T14:56:46;21.02;76.90
65421;DHT22;52028;50.658;14.004;2022-08-23T14:59:12;21.16;76.19
65421;DHT22;52028;50.658;14.004;2022-08-23T15:01:38;21.18;75.49
65421;DHT22;52028;50.658;14.004;2022-08-23T15:04:03;21.19;76.39
65421;DHT22;52028;50.658;14.004;2022-08-23T15:06:29;20.93;77.01
65421;DHT22;52028;50.658;14.004;2022-08-23T15:08:55;20.99;76.30
65421;DHT22;52028;50.658;14.004;2022-08-23T15:11:20;20.96;78.05
65421;DHT22;52028;50.658;14.004;2022-08-23T15:13:46;21.24;77.40
65421;DHT22;52028;50.658;14.004;2022-08-23T15:16:13;21.34;75.25
65421;DHT22;52028;50.658;14.004;2022-08-23T15:18:46;21.22;76.06
65421;DHT22;52028;50.658;14.004;2022-08-23T15:21:12;21.23;75.89
65421;DHT22;52028;50.658;14.004;2022-08-23T15:23:39;21.09;76.71
65421;DHT22;52028;50.658;14.004;2022-08-23T15:26:04;21.34;75.68
65421;DHT22;52028;50.658;14.004;2022-08-23T15:28:30;21.68;75.84
65421;DHT22;52028;50.658;14.004;2022-08-23T15:30:55;21.85;75.63
65421;DHT22;52028;50.658;14.004;2022-08-23T15:33:20;21.83;73.33
65421;DHT22;52028;50.658;14.004;2022-08-23T15:35:49;21.93;73.69
65421;DHT22;52028;50.658;14.004;2022-08-23T15:38:21;21.96;73.17
65421;DHT22;52028;50.658;14.004;2022-08-23T15:40:48;22.09;73.98
65421;DHT22;52028;50.658;14.004;2022-08-23T15:43:14;22.17;72.92
65421;DHT22;52028;50.658;14.004;2022-08-23T15:45:40;22.27;73.38
65421;DHT22;52028;50.658;14.004;2022-08-23T15:48:13;22.41;73.45
65421;DHT22;52028;50.658;14.004;2022-08-23T15:50:43;22.54;73.42
65421;DHT22;52028;50.658;14.004;2022-08-23T15:53:08;22.57;72.63
65421;DHT22;52028;50.658;14.004;2022-08-23T15:55:34;22.60;71.79
65421;DHT22;52028;50.658;14.004;2022-08-23T15:57:59;22.68;71.85
65421;DHT22;52028;50.658;14.004;2022-08-23T16:00:26;22.78;71.83
65421;DHT22;52028;50.658;14.004;2022-08-23T16:02:52;22.71;72.04
65421;DHT22;52028;50.658;14.004;2022-08-23T16:05:19;22.79;71.62
65421;DHT22;52028;50.658;14.004;2022-08-23T16:07:45;22.89;71.75
65421;DHT22;52028;50.658;14.004;2022-08-23T16:10:13;22.88;72.38
65421;DHT22;52028;50.658;14.004;2022-08-23T16:12:40;22.99;72.63
65421;DHT22;52028;50.658;14.004;2022-08-23T16:15:06;23.22;69.95
65421;DHT22;52028;50.658;14.004;2022-08-23T16:17:33;23.72;69.45
65421;DHT22;52028;50.658;14.004;2022-08-23T16:19:59;24.22;67.07
65421;DHT22;52028;50.658;14.004;2022-08-23T16:22:24;24.96;65.57
65421;DHT22;52028;50.658;14.004;2022-08-23T16:24:50;25.30;64.16
65421;DHT22;52028;50.658;14.004;2022-08-23T16:27:15;25.02;64.00
65421;DHT22;52028;50.658;14.004;2022-08-23T16:29:41;24.54;66.09
65421;DHT22;52028;50.658;14.004;2022-08-23T16:32:07;24.02;66.94
65421;DHT22;52028;50.658;14.004;2022-08-23T16:34:33;23.60;68.73
65421;DHT22;52028;50.658;14.004;2022-08-23T16:37:01;22.96;70.89
65421;DHT22;52028;50.658;14.004;2022-08-23T16:39:28;22.89;71.14
65421;DHT22;52028;50.658;14.004;2022-08-23T16:41:54;22.68;71.00
65421;DHT22;52028;50.658;14.004;2022-08-23T16:44:21;22.51;72.46
65421;DHT22;52028;50.658;14.004;2022-08-23T16:46:46;22.50;72.74
65421;DHT22;52028;50.658;14.004;2022-08-23T16:49:14;22.62;71.48
65421;DHT22;52028;50.658;14.004;2022-08-23T16:51:41;22.44;73.04
65421;DHT22;52028;50.658;14.004;2022-08-23T16:54:07;22.60;72.54
65421;DHT22;52028;50.658;14.004;2022-08-23T16:56:34;22.60;70.89
65421;DHT22;52028;50.658;14.004;2022-08-23T16:59:03;22.55;71.85
65421;DHT22;52028;50.658;14.004;2022-08-23T17:01:29;22.33;72.05
65421;DHT22;52028;50.658;14.004;2022-08-23T17:03:57;22.09;72.66
65421;DHT22;52028;50.658;14.004;2022-08-23T17:06:22;22.06;72.97
65421;DHT22;52028;50.658;14.004;2022-08-23T17:08:48;22.06;73.03
65421;DHT22;52028;50.658;14.004;2022-08-23T17:11:16;22.12;73.13
65421;DHT22;52028;50.658;14.004;2022-08-23T17:13:41;21.93;73.76
65421;DHT22;52028;50.658;14.004;2022-08-23T17:16:07;22.09;73.61
65421;DHT22;52028;50.658;14.004;2022-08-23T17:18:35;22.10;73.93
65421;DHT22;52028;50.658;14.004;2022-08-23T17:21:00;22.05;74.65
65421;DHT22;52028;50.658;14.004;2022-08-23T17:23:26;22.00;74.64
65421;DHT22;52028;50.658;14.004;2022-08-23T17:25:52;22.00;74.25